Time;durP1;ratioP1;P1;durP2;ratioP2;P2;SDS_P1;SDS_P2;PMS_P1;PMS_P2;Temp;Humidity;BMP_temperature;BMP_pressure;BME280_temperature;BME280_humidity;BME280_pressure;Samples;Min_cycle;Max_cycle;Signal;HPM_P1;HPM_P2
2022/04/07 00:00:48;;;;;;;13.57;2.65;;;;;;;9.08;88.23;99137.28;5099110;28;20042;-79
2022/04/07 00:03:14;;;;;;;11.05;2.42;;;;;;;9.08;88.11;99129.47;5116897;28;20394;-79
2022/04/07 00:05:40;;;;;;;8.50;1.90;;;;;;;9.07;88.10;99125.19;5118055;28;20031;-79
2022/04/07 00:08:05;;;;;;;9.13;1.95;;;;;;;9.07;88.10;99127.81;5114916;28;20342;-79
2022/04/07 00:10:31;;;;;;;8.35;1.88;;;;;;;9.06;87.95;99126.97;5118174;28;20275;-79
2022/04/07 00:12:57;;;;;;;10.55;2.15;;;;;;;9.05;88.15;99109.63;5084123;28;20027;-79
2022/04/07 00:15:23;;;;;;;6.40;1.65;;;;;;;9.07;88.29;99126.03;5118747;28;20075;-79
2022/04/07 00:17:48;;;;;;;11.35;1.73;;;;;;;9.03;88.32;99112.31;5118842;28;20240;-79
2022/04/07 00:20:14;;;;;;;14.48;2.03;;;;;;;9.03;88.42;99107.09;5100546;28;20123;-79
2022/04/07 00:22:41;;;;;;;14.25;2.22;;;;;;;9.04;88.36;99105.34;5099825;28;20043;-79
2022/04/07 00:25:07;;;;;;;12.63;1.98;;;;;;;9.01;88.39;99093.28;5100734;28;20042;-79
2022/04/07 00:27:32;;;;;;;13.65;2.90;;;;;;;9.03;88.35;99096.66;5100098;28;20102;-79
2022/04/07 00:29:57;;;;;;;17.98;3.03;;;;;;;9.05;88.29;99095.72;5118806;28;20035;-79
2022/04/07 00:32:23;;;;;;;7.30;2.67;;;;;;;9.07;88.25;99107.75;5099394;28;20066;-79
2022/04/07 00:34:54;;;;;;;12.65;2.20;;;;;;;9.06;88.01;99086.94;5118692;28;20054;-79
2022/04/07 00:37:22;;;;;;;16.48;2.50;;;;;;;9.09;87.97;99091.97;5118374;28;20020;-79
2022/04/07 00:39:47;;;;;;;16.83;3.30;;;;;;;9.06;87.93;99085.19;5118531;28;20309;-79
2022/04/07 00:42:12;;;;;;;11.80;2.47;;;;;;;9.05;88.07;99056.56;5099787;28;20047;-79
2022/04/07 00:44:38;;;;;;;9.25;2.10;;;;;;;9.05;87.88;99070.44;5083132;28;20027;-79
2022/04/07 00:47:03;;;;;;;20.95;3.45;;;;;;;9.02;87.66;99070.63;5099753;28;20035;-79
2022/04/07 00:49:29;;;;;;;21.25;3.45;;;;;;;9.00;87.90;99055.09;5130468;27;20048;-79
2022/04/07 00:51:54;;;;;;;11.57;2.75;;;;;;;9.00;88.05;99049.84;5099900;28;20235;-79
2022/04/07 00:54:20;;;;;;;13.38;3.20;;;;;;;9.00;87.99;99042.03;5099960;28;20035;-79
2022/04/07 00:56:46;;;;;;;12.27;2.38;;;;;;;9.01;88.55;99029.81;5117210;28;20052;-79
2022/04/07 00:59:16;;;;;;;13.27;2.67;;;;;;;9.01;88.10;99033.25;5083208;28;20370;-79
2022/04/07 01:05:06;;;;;;;17.65;3.85;;;;;;;9.01;88.42;99016.75;5100635;27;20051;-79
2022/04/07 01:07:36;;;;;;;9.52;2.45;;;;;;;9.01;88.32;99022.78;5078372;28;20433;-79
2022/04/07 01:10:02;;;;;;;15.40;3.00;;;;;;;9.01;89.00;99014.13;5099580;28;20032;-79
2022/04/07 01:12:28;;;;;;;15.68;3.22;;;;;;;9.00;89.04;99005.47;5099079;28;20042;-79
2022/04/07 01:14:55;;;;;;;18.50;2.83;;;;;;;9.01;89.46;99006.31;5082847;28;20110;-79
2022/04/07 01:17:21;;;;;;;9.07;2.47;;;;;;;8.95;89.75;98993.63;5099883;27;20019;-79
2022/04/07 01:19:46;;;;;;;16.52;3.25;;;;;;;8.98;89.61;98985.59;5121283;27;20074;-79
2022/04/07 01:22:13;;;;;;;14.10;3.28;;;;;;;8.95;90.13;98984.03;5099341;28;20215;-79
2022/04/07 01:24:39;;;;;;;15.70;3.20;;;;;;;8.97;89.77;98987.38;5117415;28;20042;-79
2022/04/07 01:27:05;;;;;;;14.63;3.03;;;;;;;8.99;89.97;98971.63;5120132;27;20047;-79
2022/04/07 01:29:30;;;;;;;20.98;3.65;;;;;;;8.98;89.80;98962.09;5099115;28;20050;-79
2022/04/07 01:31:56;;;;;;;10.77;2.47;;;;;;;8.97;89.60;98950.81;5100463;28;20031;-79
2022/04/07 01:34:22;;;;;;;19.88;3.40;;;;;;;8.95;89.58;98949.22;5081959;28;20031;-79
2022/04/07 01:36:51;;;;;;;14.15;3.28;;;;;;;8.97;89.62;98950.81;5099639;28;20042;-79
2022/04/07 01:39:21;;;;;;;;;;;;;;;8.93;89.45;98954.59;5117429;28;20039;-79
2022/04/07 01:41:47;;;;;;;25.95;3.80;;;;;;;8.92;89.26;98945.06;5117720;28;19903;-79
2022/04/07 01:44:14;;;;;;;23.38;3.20;;;;;;;8.92;89.05;98925.97;5097902;28;20035;-79
2022/04/07 01:46:40;;;;;;;17.27;3.95;;;;;;;8.93;89.62;98927.63;5118427;28;20358;-79
2022/04/07 01:49:07;;;;;;;21.25;3.30;;;;;;;8.93;89.85;98925.00;5098332;28;20036;-79
2022/04/07 01:51:33;;;;;;;22.27;4.13;;;;;;;8.96;89.61;98919.59;5117187;28;20046;-79
2022/04/07 01:54:01;;;;;;;20.75;3.05;;;;;;;8.93;89.83;98912.81;5098653;28;20320;-79
2022/04/07 01:56:26;;;;;;;19.75;3.20;;;;;;;8.89;89.44;98908.69;5102162;28;20047;-79
2022/04/07 01:58:53;;;;;;;13.77;3.00;;;;;;;8.88;89.48;98909.66;5083313;28;20074;-79
2022/04/07 02:01:18;;;;;;;14.35;3.25;;;;;;;8.88;89.35;98894.00;5117423;28;20042;-79
2022/04/07 02:03:45;;;;;;;21.77;3.75;;;;;;;8.88;89.35;98899.22;5117389;28;20278;-79
2022/04/07 02:06:15;;;;;;;16.33;3.17;;;;;;;8.89;89.26;98921.75;5098855;28;20062;-79
2022/04/07 02:08:41;;;;;;;17.83;2.70;;;;;;;8.88;88.77;98898.34;5129610;28;20039;-79
2022/04/07 02:11:08;;;;;;;22.75;3.70;;;;;;;8.89;88.59;98906.09;5113100;28;20051;-79
2022/04/07 02:13:34;;;;;;;20.13;2.95;;;;;;;8.90;88.62;98893.91;5082031;28;20331;-79
2022/04/07 02:16:01;;;;;;;21.05;3.30;;;;;;;8.91;88.52;98900.78;5119642;28;20038;-79
2022/04/07 02:18:26;;;;;;;23.40;3.53;;;;;;;8.89;88.47;98887.81;5137273;27;20043;-79
2022/04/07 02:20:52;;;;;;;17.48;2.70;;;;;;;8.95;88.14;98904.84;5116936;28;20113;-79
2022/04/07 02:23:17;;;;;;;17.13;2.95;;;;;;;8.96;87.93;98881.25;5102098;28;20047;-79
2022/04/07 02:25:42;;;;;;;19.30;3.53;;;;;;;8.98;87.77;98860.28;5121301;28;20396;-79
2022/04/07 02:28:08;;;;;;;25.25;3.88;;;;;;;9.00;87.66;98885.38;5130509;27;20039;-79
2022/04/07 02:30:33;;;;;;;18.33;3.58;;;;;;;8.98;87.59;98862.88;5093692;28;20247;-79
2022/04/07 02:32:59;;;;;;;23.58;3.55;;;;;;;8.96;87.45;98862.97;5084313;28;20031;-79
2022/04/07 02:35:24;;;;;;;27.13;3.30;;;;;;;8.99;87.46;98869.78;5125456;27;20039;-79
2022/04/07 02:37:49;;;;;;;28.52;4.75;;;;;;;8.97;87.25;98845.56;5095250;28;20039;-79
2022/04/07 02:40:15;;;;;;;22.35;3.35;;;;;;;8.99;87.54;98847.13;5084762;28;20347;-79
2022/04/07 02:42:40;;;;;;;24.17;4.28;;;;;;;8.97;87.73;98851.63;5085025;28;20043;-79
2022/04/07 02:45:06;;;;;;;21.83;3.60;;;;;;;8.97;87.79;98825.50;5102841;28;20273;-78
2022/04/07 02:47:33;;;;;;;19.02;3.53;;;;;;;8.96;87.56;98825.59;5102134;28;20051;-79
2022/04/07 02:49:59;;;;;;;21.08;4.15;;;;;;;8.96;87.53;98821.22;5120524;28;20110;-79
2022/04/07 02:52:24;;;;;;;19.42;3.00;;;;;;;8.99;87.42;98812.34;5101932;28;20100;-79
2022/04/07 02:54:50;;;;;;;19.70;2.88;;;;;;;9.00;87.68;98829.69;5085177;28;20038;-79
2022/04/07 02:57:15;;;;;;;20.65;3.13;;;;;;;8.99;87.71;98794.91;5101428;28;20035;-78
2022/04/07 02:59:41;;;;;;;20.90;3.63;;;;;;;9.00;87.69;98811.41;5070110;28;20028;-78
2022/04/07 03:02:06;;;;;;;28.25;3.10;;;;;;;8.97;87.58;98794.19;5105142;27;20042;-78
2022/04/07 03:04:32;;;;;;;21.23;3.05;;;;;;;8.96;88.15;98784.66;5104653;28;20059;-78
2022/04/07 03:06:57;;;;;;;21.80;3.33;;;;;;;8.94;87.97;98783.09;5105433;27;20054;-78
2022/04/07 03:09:22;;;;;;;18.92;3.85;;;;;;;8.93;88.17;98766.63;5104894;28;20361;-78
2022/04/07 03:11:48;;;;;;;16.33;2.97;;;;;;;8.96;87.94;98778.63;5105384;27;20039;-78
2022/04/07 03:14:15;;;;;;;25.27;3.85;;;;;;;8.96;87.85;98763.78;5124837;27;20031;-78
2022/04/07 03:16:41;;;;;;;25.95;3.47;;;;;;;8.97;88.01;98764.63;5140072;27;20038;-78
2022/04/07 03:19:07;;;;;;;25.58;3.70;;;;;;;8.95;88.00;98759.50;5106042;28;20338;-78
2022/04/07 03:21:32;;;;;;;26.15;3.30;;;;;;;8.96;88.21;98758.56;5104116;28;20031;-78
2022/04/07 03:23:58;;;;;;;21.88;3.60;;;;;;;8.92;88.49;98731.00;5121559;27;20039;-78
2022/04/07 03:26:23;;;;;;;24.75;3.35;;;;;;;8.95;88.46;98728.19;5102841;28;20088;-78
2022/04/07 03:28:49;;;;;;;16.48;3.63;;;;;;;8.96;88.62;98724.63;5103858;28;20051;-78
2022/04/07 03:31:14;;;;;;;17.83;2.78;;;;;;;8.96;89.01;98724.63;5115121;28;20047;-78
2022/04/07 03:33:40;;;;;;;23.92;3.35;;;;;;;8.91;89.25;98708.41;5104408;28;20028;-78
2022/04/07 03:36:05;;;;;;;19.73;3.72;;;;;;;8.90;89.35;98701.53;5122617;28;20032;-78
2022/04/07 03:38:31;;;;;;;17.25;3.20;;;;;;;8.90;89.54;98696.31;5105728;28;20035;-78
2022/04/07 03:40:56;;;;;;;18.58;3.40;;;;;;;8.91;89.45;98684.94;5103737;28;20043;-78
2022/04/07 03:43:22;;;;;;;24.13;3.60;;;;;;;8.88;90.07;98684.31;5109740;28;20377;-78
2022/04/07 03:45:48;;;;;;;18.17;2.85;;;;;;;8.88;89.89;98660.81;5104577;28;20043;-78
2022/04/07 03:48:14;;;;;;;22.42;3.53;;;;;;;8.87;90.22;98638.28;5132343;27;20307;-78
2022/04/07 03:50:40;;;;;;;11.75;2.17;;;;;;;8.84;89.98;98628.84;5123366;27;20035;-78
2022/04/07 03:53:06;;;;;;;21.02;3.00;;;;;;;8.86;90.07;98628.75;5105080;28;20102;-78
2022/04/07 03:55:31;;;;;;;14.70;3.03;;;;;;;8.82;90.18;98613.34;5104417;28;20690;-78
2022/04/07 03:57:57;;;;;;;16.13;2.88;;;;;;;8.82;90.00;98594.22;5121944;28;20059;-78
2022/04/07 04:00:22;;;;;;;18.15;2.97;;;;;;;8.86;89.96;98598.28;5103100;28;20055;-78
2022/04/07 04:02:50;;;;;;;10.38;2.33;;;;;;;8.88;89.59;98585.97;5086740;28;20090;-78
2022/04/07 04:05:16;;;;;;;11.10;1.80;;;;;;;8.86;89.41;98580.03;5103564;28;20382;-78
2022/04/07 04:07:42;;;;;;;12.52;1.95;;;;;;;8.82;89.15;98565.50;5115100;28;20063;-78
2022/04/07 04:10:08;;;;;;;12.05;2.35;;;;;;;8.80;89.16;98555.19;5121746;28;20051;-78
2022/04/07 04:12:33;;;;;;;7.57;1.85;;;;;;;8.85;89.08;98541.78;5102925;28;20038;-78
2022/04/07 04:15:00;;;;;;;19.85;2.95;;;;;;;8.79;89.32;98523.97;5125308;27;20263;-78
2022/04/07 04:17:27;;;;;;;14.48;2.67;;;;;;;8.79;89.28;98539.63;5102670;28;20047;-78
2022/04/07 04:19:52;;;;;;;14.85;2.45;;;;;;;8.75;89.44;98532.94;5070739;28;20023;-78
2022/04/07 04:22:18;;;;;;;12.95;2.55;;;;;;;8.73;89.57;98530.47;5085954;28;20036;-78
2022/04/07 04:24:44;;;;;;;15.32;2.70;;;;;;;8.78;89.58;98528.34;5086131;28;20096;-78
2022/04/07 04:27:09;;;;;;;15.30;2.83;;;;;;;8.77;89.72;98497.16;5103032;28;20043;-78
2022/04/07 04:29:35;;;;;;;14.07;2.50;;;;;;;8.73;89.63;98490.47;5103000;28;20040;-78
2022/04/07 04:32:00;;;;;;;11.93;1.75;;;;;;;8.72;89.63;98484.41;5103169;28;20100;-78
2022/04/07 04:34:26;;;;;;;14.35;2.25;;;;;;;8.71;89.76;98500.16;5102628;28;20134;-78
2022/04/07 04:36:51;;;;;;;8.75;1.65;;;;;;;8.73;89.88;98485.25;5102811;28;20043;-78
2022/04/07 04:39:17;;;;;;;8.90;2.20;;;;;;;8.70;89.71;98493.31;5101893;28;20035;-78
2022/04/07 04:41:42;;;;;;;9.63;1.73;;;;;;;8.69;89.91;98468.97;5102527;28;20028;-78
2022/04/07 04:44:08;;;;;;;12.02;1.80;;;;;;;8.69;90.29;98474.19;5086191;28;20339;-78
2022/04/07 04:46:33;;;;;;;8.73;1.63;;;;;;;8.66;90.24;98458.75;5084849;28;20043;-78
2022/04/07 04:48:59;;;;;;;9.82;2.15;;;;;;;8.64;90.39;98455.41;5068907;28;20106;-78
2022/04/07 04:51:24;;;;;;;11.25;1.70;;;;;;;8.66;90.66;98440.50;5102032;28;20051;-79
2022/04/07 04:53:49;;;;;;;6.20;1.38;;;;;;;8.65;90.92;98438.81;5102523;28;20042;-79
2022/04/07 04:56:15;;;;;;;8.88;1.60;;;;;;;8.64;90.94;98444.97;5085978;28;20051;-79
2022/04/07 04:58:40;;;;;;;12.88;2.10;;;;;;;8.64;90.96;98422.34;5102580;28;20059;-80
2022/04/07 05:01:05;;;;;;;5.45;1.52;;;;;;;8.64;91.12;98426.69;5103055;28;20039;-80
2022/04/07 05:03:31;;;;;;;9.45;1.88;;;;;;;8.62;91.35;98399.88;5068279;28;20095;-80
2022/04/07 05:05:56;;;;;;;7.28;1.83;;;;;;;8.62;91.52;98400.75;5082651;28;20031;-79
2022/04/07 05:08:21;;;;;;;10.98;1.88;;;;;;;8.63;91.53;98414.63;5100151;28;20346;-79
2022/04/07 05:10:47;;;;;;;8.48;1.75;;;;;;;8.59;91.65;98411.38;5095479;28;20039;-79
2022/04/07 05:13:13;;;;;;;9.55;1.42;;;;;;;8.59;91.97;98426.22;5085720;28;20066;-79
2022/04/07 05:15:39;;;;;;;7.03;1.35;;;;;;;8.56;91.60;98393.34;5121151;28;20273;-79
2022/04/07 05:18:05;;;;;;;8.00;1.67;;;;;;;8.56;92.17;98416.81;5106857;27;20106;-79
2022/04/07 05:20:31;;;;;;;7.47;1.10;;;;;;;8.56;92.02;98413.38;5136854;27;20039;-79
2022/04/07 05:22:56;;;;;;;8.65;1.48;;;;;;;8.55;92.16;98422.13;5131509;27;20080;-79
2022/04/07 05:25:22;;;;;;;9.13;1.60;;;;;;;8.52;92.32;98427.59;5106558;27;20027;-79
2022/04/07 05:27:47;;;;;;;4.25;1.35;;;;;;;8.50;92.38;98440.75;5110171;28;20028;-79
2022/04/07 05:30:15;;;;;;;4.93;1.33;;;;;;;8.56;92.04;98483.81;5102442;28;20059;-79
2022/04/07 05:32:44;;;;;;;7.60;1.38;;;;;;;8.55;92.11;98508.22;5102842;28;20031;-79
2022/04/07 05:35:10;;;;;;;6.05;1.08;;;;;;;8.49;92.36;98529.53;5104155;28;20035;-79
2022/04/07 05:37:36;;;;;;;4.40;0.77;;;;;;;8.07;87.04;98579.22;5102214;28;20323;-79
2022/04/07 05:40:02;;;;;;;4.82;0.90;;;;;;;7.91;84.03;98553.34;5102618;28;20140;-79
2022/04/07 05:42:28;;;;;;;5.18;0.98;;;;;;;7.72;85.25;98526.84;5083662;28;20031;-79
2022/04/07 05:44:53;;;;;;;4.72;0.82;;;;;;;7.68;86.14;98534.84;5083966;28;20035;-79
2022/04/07 05:47:18;;;;;;;6.82;0.80;;;;;;;7.52;85.63;98549.81;5080966;28;20023;-79
2022/04/07 05:49:44;;;;;;;4.68;1.13;;;;;;;7.42;86.02;98546.97;5119270;28;20342;-79
2022/04/07 05:52:09;;;;;;;3.05;0.63;;;;;;;7.33;86.43;98534.56;5103997;28;20043;-79
2022/04/07 05:54:35;;;;;;;5.22;1.23;;;;;;;7.28;87.08;98534.00;5073095;28;20027;-79
2022/04/07 05:57:00;;;;;;;4.30;0.93;;;;;;;7.20;87.06;98524.06;5091593;28;20047;-79
2022/04/07 05:59:26;;;;;;;5.05;1.08;;;;;;;7.18;88.40;98528.53;5107911;28;20304;-79
2022/04/07 06:01:52;;;;;;;13.25;1.58;;;;;;;7.20;88.58;98544.88;5108642;28;20054;-79
2022/04/07 06:04:17;;;;;;;4.32;1.13;;;;;;;7.16;88.22;98525.19;5089256;28;20092;-79
2022/04/07 06:06:43;;;;;;;7.18;1.50;;;;;;;7.18;88.54;98532.91;5108753;28;20027;-79
2022/04/07 06:09:09;;;;;;;5.20;1.20;;;;;;;7.12;88.51;98518.50;5106970;28;20028;-79
2022/04/07 06:11:35;;;;;;;9.43;1.40;;;;;;;7.16;88.29;98519.16;5107733;28;20244;-79
2022/04/07 06:14:01;;;;;;;6.43;1.20;;;;;;;7.18;88.53;98512.09;5087836;28;20213;-79
2022/04/07 06:16:27;;;;;;;5.88;1.00;;;;;;;7.16;88.32;98491.34;5116235;28;20321;-79
2022/04/07 06:18:52;;;;;;;9.65;1.77;;;;;;;7.10;87.94;98486.56;5126908;28;20099;-79
2022/04/07 06:21:18;;;;;;;6.13;1.00;;;;;;;7.04;87.61;98469.56;5107770;28;20269;-79
2022/04/07 06:23:44;;;;;;;9.18;1.33;;;;;;;7.04;87.92;98455.69;5126622;28;20146;-79
2022/04/07 06:26:10;;;;;;;7.75;1.42;;;;;;;6.89;87.76;98460.09;5108683;28;20046;-79
2022/04/07 06:28:36;;;;;;;2.83;0.90;;;;;;;6.90;88.07;98461.78;5108140;28;20027;-79
2022/04/07 06:31:01;;;;;;;7.28;1.17;;;;;;;6.82;88.35;98466.63;5091698;28;20212;-79
2022/04/07 06:33:26;;;;;;;2.88;1.00;;;;;;;6.86;88.05;98471.56;5105119;28;20046;-79
2022/04/07 06:35:52;;;;;;;7.88;1.55;;;;;;;6.82;87.32;98470.09;5099968;28;20259;-79
2022/04/07 06:38:18;;;;;;;7.50;0.85;;;;;;;6.78;88.00;98467.75;5107928;28;20047;-78
2022/04/07 06:40:44;;;;;;;6.30;0.93;;;;;;;6.76;87.69;98460.06;5090439;28;20032;-79
2022/04/07 06:43:10;;;;;;;6.88;0.85;;;;;;;6.73;87.85;98450.69;5108706;28;20327;-81
2022/04/07 06:45:35;;;;;;;5.47;0.90;;;;;;;6.74;87.95;98454.13;5089002;28;20034;-79
2022/04/07 06:48:01;;;;;;;3.83;0.70;;;;;;;6.73;87.92;98452.44;5088205;28;20040;-79
2022/04/07 06:50:26;;;;;;;7.90;0.90;;;;;;;6.66;87.97;98428.59;5106675;28;20028;-79
2022/04/07 06:52:54;;;;;;;3.00;0.73;;;;;;;6.70;88.25;98422.25;5079189;28;20056;-79
2022/04/07 06:55:20;;;;;;;6.60;1.17;;;;;;;6.73;88.09;98403.88;5110979;28;20052;-79
2022/04/07 06:58:01;;;;;;;5.22;0.98;;;;;;;6.78;88.32;98408.75;5096873;28;20097;-79
2022/04/07 07:00:29;;;;;;;3.38;0.95;;;;;;;6.74;88.26;98409.91;5094057;28;20046;-79
2022/04/07 07:02:56;;;;;;;5.18;1.00;;;;;;;6.78;88.47;98394.94;5107445;28;20076;-79
2022/04/07 07:05:23;;;;;;;5.25;1.38;;;;;;;6.81;88.62;98397.34;5090586;28;20043;-79
2022/04/07 07:07:48;;;;;;;3.15;0.93;;;;;;;6.83;88.58;98391.09;5117437;28;20100;-79
2022/04/07 07:10:22;;;;;;;6.57;1.27;;;;;;;6.85;88.72;98381.41;5123592;28;20314;-79
2022/04/07 07:12:48;;;;;;;3.70;0.88;;;;;;;6.91;88.67;98401.00;5105441;28;20031;-79
2022/04/07 07:15:14;;;;;;;8.38;1.00;;;;;;;6.91;88.39;98388.00;5104816;28;20023;-79
2022/04/07 07:17:40;;;;;;;1.80;0.57;;;;;;;6.88;88.49;98362.19;5105012;28;20047;-79
2022/04/07 07:20:07;;;;;;;2.65;0.80;;;;;;;6.87;88.82;98332.72;5091599;28;20044;-79
2022/04/07 07:22:32;;;;;;;3.22;0.75;;;;;;;6.91;88.93;98328.16;5120942;28;20039;-79
2022/04/07 07:24:59;;;;;;;2.97;0.65;;;;;;;6.94;89.05;98301.94;5104610;28;20135;-79
2022/04/07 07:27:24;;;;;;;6.28;1.58;;;;;;;7.00;89.11;98319.72;5083840;28;20027;-79
2022/04/07 07:29:50;;;;;;;2.53;0.80;;;;;;;7.05;88.88;98322.03;5088479;28;20263;-79
2022/04/07 07:32:15;;;;;;;2.83;0.57;;;;;;;7.06;88.57;98310.72;5103974;28;20072;-79
2022/04/07 07:34:41;;;;;;;2.70;0.77;;;;;;;7.05;88.77;98304.66;5086731;28;20027;-79
2022/04/07 07:37:06;;;;;;;3.03;0.65;;;;;;;7.07;89.09;98299.34;5084348;28;20051;-79
2022/04/07 07:39:32;;;;;;;1.15;0.50;;;;;;;7.07;89.00;98302.78;5086827;28;20034;-79
2022/04/07 07:41:57;;;;;;;2.42;1.30;;;;;;;7.02;89.26;98297.06;5091839;28;20223;-79
2022/04/07 07:44:24;;;;;;;4.35;0.90;;;;;;;7.05;89.24;98307.25;5089249;28;20023;-79
2022/04/07 07:46:49;;;;;;;6.53;1.08;;;;;;;7.07;89.14;98297.56;5087988;28;20043;-79
2022/04/07 07:49:14;;;;;;;2.35;0.98;;;;;;;7.08;89.42;98306.22;5098269;28;20040;-79
2022/04/07 07:51:40;;;;;;;13.25;1.15;;;;;;;7.08;89.26;98307.06;5101860;28;20062;-79
2022/04/07 07:54:05;;;;;;;5.90;0.77;;;;;;;7.08;89.50;98307.06;5117428;28;20266;-79
2022/04/07 07:56:30;;;;;;;5.13;1.00;;;;;;;7.10;89.59;98318.19;5083313;28;20059;-79
2022/04/07 07:58:56;;;;;;;9.13;0.93;;;;;;;7.09;89.46;98318.28;5083410;28;20032;-79
2022/04/07 08:01:21;;;;;;;3.10;1.00;;;;;;;7.13;89.73;98316.31;5067229;28;20039;-79
2022/04/07 08:03:47;;;;;;;3.72;0.90;;;;;;;7.14;89.48;98318.81;5100044;28;20339;-79
2022/04/07 08:06:13;;;;;;;2.90;0.77;;;;;;;7.16;89.88;98306.53;5121254;28;20094;-79
2022/04/07 08:08:39;;;;;;;7.22;1.00;;;;;;;7.17;90.04;98310.81;5118922;28;20319;-78
2022/04/07 08:11:06;;;;;;;3.50;0.73;;;;;;;7.20;89.79;98315.81;5103213;28;20356;-79
2022/04/07 08:13:31;;;;;;;5.90;1.10;;;;;;;7.27;89.31;98316.22;5099798;28;20227;-79
2022/04/07 08:15:57;;;;;;;6.15;1.38;;;;;;;7.32;89.52;98313.34;5121103;28;20034;-79
2022/04/07 08:18:23;;;;;;;5.40;1.27;;;;;;;7.34;89.77;98330.50;5084462;28;20073;-79
2022/04/07 08:20:49;;;;;;;5.97;1.08;;;;;;;7.34;90.33;98312.28;5101869;28;20031;-79
2022/04/07 08:23:15;;;;;;;6.75;1.27;;;;;;;7.38;90.23;98328.53;5101105;28;20036;-79
2022/04/07 08:25:41;;;;;;;8.23;1.10;;;;;;;7.41;90.13;98305.72;5101457;28;20035;-79
2022/04/07 08:28:06;;;;;;;10.15;1.27;;;;;;;7.47;90.50;98318.31;5102595;28;20047;-79
2022/04/07 08:30:34;;;;;;;5.93;1.13;;;;;;;7.54;90.64;98313.53;5102092;28;20126;-79
2022/04/07 08:33:00;;;;;;;2.63;1.10;;;;;;;7.57;90.38;98312.50;5085833;28;20016;-79
2022/04/07 08:35:26;;;;;;;8.25;1.00;;;;;;;7.58;90.61;98311.56;5092301;28;20039;-79
2022/04/07 08:37:51;;;;;;;2.05;1.00;;;;;;;7.61;90.48;98321.75;5091779;28;20046;-79
2022/04/07 08:40:20;;;;;;;4.50;0.90;;;;;;;7.65;89.87;98339.66;5102256;28;20114;-78
2022/04/07 08:42:45;;;;;;;7.00;1.30;;;;;;;7.74;88.67;98312.16;5084051;28;20062;-79
2022/04/07 08:45:11;;;;;;;7.68;1.27;;;;;;;7.73;87.66;98336.56;5084045;28;20390;-79
2022/04/07 08:47:38;;;;;;;8.70;1.38;;;;;;;7.75;87.43;98334.69;5105299;28;20254;-78
2022/04/07 08:50:04;;;;;;;4.60;1.02;;;;;;;7.76;87.44;98322.47;5082460;28;20077;-79
2022/04/07 08:52:29;;;;;;;10.35;1.67;;;;;;;7.82;86.70;98338.53;5101919;28;20102;-79
2022/04/07 08:54:55;;;;;;;5.25;1.27;;;;;;;7.84;86.02;98370.53;5085567;28;20300;-79
2022/04/07 08:57:22;;;;;;;11.82;1.65;;;;;;;7.84;84.40;98330.56;5086224;28;20038;-79
2022/04/07 08:59:47;;;;;;;14.75;1.40;;;;;;;7.85;84.23;98353.09;5084047;28;20327;-79
2022/04/07 09:02:13;;;;;;;10.27;1.67;;;;;;;7.84;84.28;98362.72;5095318;28;20027;-79
2022/04/07 09:04:39;;;;;;;6.38;1.52;;;;;;;7.85;84.57;98361.75;5087805;28;20036;-79
2022/04/07 09:07:05;;;;;;;9.05;1.45;;;;;;;7.90;83.99;98348.41;5095757;28;20065;-79
2022/04/07 09:09:32;;;;;;;9.23;1.67;;;;;;;7.86;82.57;98363.44;5090454;28;20338;-79
2022/04/07 09:11:58;;;;;;;8.98;1.90;;;;;;;7.90;83.21;98373.66;5089149;28;20110;-79
2022/04/07 09:14:24;;;;;;;9.02;1.40;;;;;;;7.92;81.64;98361.34;5098918;28;20074;-79
2022/04/07 09:16:54;;;;;;;6.88;0.98;;;;;;;7.96;81.89;98360.19;5086869;28;20039;-79
2022/04/07 09:19:21;;;;;;;8.88;1.30;;;;;;;7.99;82.48;98392.09;5099821;28;20024;-79
2022/04/07 09:21:50;;;;;;;5.72;1.30;;;;;;;8.01;81.75;98391.97;5064807;28;20046;-79
2022/04/07 09:24:25;;;;;;;10.70;1.60;;;;;;;8.03;81.10;98371.84;5119134;28;20032;-79
2022/04/07 09:26:51;;;;;;;10.68;1.48;;;;;;;8.08;81.35;98364.56;5081244;28;20192;-79
2022/04/07 09:29:16;;;;;;;9.57;1.27;;;;;;;8.14;82.17;98400.59;5106294;28;20042;-79
2022/04/07 09:31:53;;;;;;;9.35;1.92;;;;;;;8.14;80.58;98382.34;5083767;28;20039;-79
2022/04/07 09:34:32;;;;;;;8.77;1.73;;;;;;;8.13;79.67;98403.31;5101120;28;20034;-79
2022/04/07 09:37:07;;;;;;;;;;;;;;;8.10;80.92;98399.16;5083090;28;20040;-79
2022/04/07 09:39:34;;;;;;;8.70;1.65;;;;;;;8.12;80.84;98415.53;5117101;28;19961;-79
2022/04/07 09:42:23;;;;;;;12.90;1.92;;;;;;;8.06;79.30;98431.59;5114215;28;20041;-79
2022/04/07 09:44:51;;;;;;;7.78;1.88;;;;;;;8.03;79.07;98421.38;5092188;28;20038;-78
2022/04/07 09:47:19;;;;;;;13.15;1.55;;;;;;;8.02;79.39;98412.72;5113195;28;20032;-78
2022/04/07 09:49:45;;;;;;;8.45;1.63;;;;;;;8.03;79.64;98401.34;5100852;28;20081;-78
2022/04/07 09:52:11;;;;;;;14.32;2.17;;;;;;;8.02;79.00;98430.13;5082972;28;20039;-79
2022/04/07 09:54:41;;;;;;;7.53;2.08;;;;;;;8.00;77.80;98424.19;5099150;28;20034;-79
2022/04/07 09:57:09;;;;;;;11.57;1.80;;;;;;;7.99;79.02;98427.75;5081220;28;20074;-79
2022/04/07 09:59:38;;;;;;;14.95;2.38;;;;;;;7.98;79.27;98428.66;5112829;28;20319;-78
2022/04/07 10:02:06;;;;;;;8.98;1.92;;;;;;;8.00;78.84;98400.72;5110445;28;20256;-78
2022/04/07 10:04:34;;;;;;;11.10;1.80;;;;;;;7.96;78.40;98431.38;5078714;28;20024;-79
2022/04/07 10:07:02;;;;;;;15.95;2.60;;;;;;;7.99;78.49;98440.78;5100975;28;20103;-79
2022/04/07 10:09:28;;;;;;;22.70;3.55;;;;;;;8.01;78.15;98418.03;5078466;28;20020;-78
2022/04/07 10:11:54;;;;;;;11.40;2.40;;;;;;;8.04;78.71;98430.84;5108026;28;20054;-78
2022/04/07 10:14:21;;;;;;;12.93;2.50;;;;;;;8.05;77.01;98440.34;5078877;28;20114;-78
2022/04/07 10:16:47;;;;;;;9.90;1.83;;;;;;;8.05;77.71;98409.91;5113737;28;20036;-78
2022/04/07 10:19:31;;;;;;;13.57;2.33;;;;;;;8.07;76.58;98451.50;5079432;28;20232;-78
2022/04/07 10:22:12;;;;;;;14.82;2.97;;;;;;;8.07;76.46;98426.25;5090438;28;20068;-78
2022/04/07 10:24:45;;;;;;;16.73;2.75;;;;;;;8.04;76.64;98436.91;5102349;28;20040;-78
2022/04/07 10:27:12;;;;;;;8.48;2.05;;;;;;;8.07;76.56;98441.91;5086149;28;20149;-78
2022/04/07 10:29:40;;;;;;;12.45;2.13;;;;;;;8.10;76.06;98468.72;5075627;28;20262;-78
2022/04/07 10:32:11;;;;;;;12.57;1.92;;;;;;;8.12;76.54;98451.19;5087669;28;20038;-78
2022/04/07 10:34:37;;;;;;;24.42;3.15;;;;;;;8.14;75.75;98480.59;5098548;28;20046;-78
2022/04/07 10:37:07;;;;;;;20.85;3.10;;;;;;;8.13;75.87;98438.06;5099185;28;20359;-78
2022/04/07 10:39:33;;;;;;;10.70;2.58;;;;;;;8.16;76.26;98460.47;5095585;28;20039;-78
2022/04/07 10:41:59;;;;;;;12.35;2.28;;;;;;;8.17;74.57;98439.50;5094339;28;20024;-78
2022/04/07 10:44:26;;;;;;;21.38;2.55;;;;;;;8.22;75.45;98458.28;5088991;28;20035;-78
2022/04/07 10:47:04;;;;;;;19.70;2.45;;;;;;;8.29;75.72;98431.78;5076681;28;20046;-78
2022/04/07 10:49:31;;;;;;;20.00;2.45;;;;;;;8.33;76.07;98470.59;5118928;28;20080;-78
2022/04/07 10:51:59;;;;;;;13.07;2.15;;;;;;;8.39;75.63;98444.06;5094575;28;20107;-78
2022/04/07 10:54:28;;;;;;;13.55;2.70;;;;;;;8.49;75.27;98474.75;5095414;28;20039;-78
2022/04/07 10:56:56;;;;;;;12.55;1.83;;;;;;;8.52;74.74;98457.13;5095851;28;20055;-78
2022/04/07 10:59:31;;;;;;;16.30;2.40;;;;;;;8.58;75.03;98480.16;5096551;28;20061;-78
2022/04/07 11:01:56;;;;;;;16.27;3.25;;;;;;;8.58;75.38;98474.94;5083211;28;20232;-78
2022/04/07 11:04:25;;;;;;;17.42;2.78;;;;;;;8.61;75.72;98472.13;5095400;28;20040;-78
2022/04/07 11:07:08;;;;;;;13.60;2.92;;;;;;;8.62;74.93;98457.28;5114708;28;20315;-78
2022/04/07 11:09:49;;;;;;;23.08;2.97;;;;;;;8.65;75.47;98465.75;5086582;28;20041;-78
2022/04/07 11:12:39;;;;;;;24.48;2.55;;;;;;;8.74;74.61;98459.03;5109330;28;20203;-78
2022/04/07 11:15:18;;;;;;;20.77;2.45;;;;;;;8.80;73.89;98536.06;5098787;28;20027;-78
2022/04/07 11:17:46;;;;;;;22.85;3.58;;;;;;;8.85;73.92;98510.47;5102256;28;20023;-78
2022/04/07 11:20:23;;;;;;;11.40;2.17;;;;;;;8.89;73.42;98485.00;5099177;28;20249;-78
2022/04/07 11:23:01;;;;;;;15.88;2.40;;;;;;;8.91;74.19;98541.34;5120058;28;20258;-78
2022/04/07 11:25:40;;;;;;;12.75;2.58;;;;;;;8.94;73.24;98490.72;5097334;28;20040;-78
2022/04/07 11:28:25;;;;;;;;;;;;;;;8.93;72.78;98499.50;5105490;28;20039;-78
2022/04/07 11:30:56;;;;;;;19.92;2.72;;;;;;;8.95;71.74;98477.56;5115301;28;19915;-78
2022/04/07 11:33:25;;;;;;;14.80;2.60;;;;;;;8.95;72.48;98513.25;5081084;28;20323;-78
2022/04/07 11:36:00;;;;;;;12.85;2.40;;;;;;;8.91;71.37;98515.25;5100757;28;20130;-78
2022/04/07 11:38:47;;;;;;;12.75;2.55;;;;;;;8.91;72.02;98501.38;5087913;28;20082;-78
2022/04/07 11:41:14;;;;;;;20.45;2.63;;;;;;;8.94;73.21;98480.28;5095117;27;20228;-78